Time;durP1;ratioP1;P1;durP2;ratioP2;P2;SDS_P1;SDS_P2;PMS_P1;PMS_P2;Temp;Humidity;BMP_temperature;BMP_pressure;BME280_temperature;BME280_humidity;BME280_pressure;Samples;Min_cycle;Max_cycle;Signal;HPM_P1;HPM_P2
2021/01/08 00:00:09;;;;;;;14.57;11.27;;;;;;;;;;5015488;28;20223;-69
2021/01/08 00:02:35;;;;;;;15.90;11.10;;;;;;;;;;5021392;28;20535;-69
2021/01/08 00:05:00;;;;;;;20.67;12.23;;;;;;;;;;5028725;28;20481;-69
2021/01/08 00:07:26;;;;;;;15.03;11.20;;;;;;;;;;5020351;28;20219;-68
2021/01/08 00:09:51;;;;;;;14.77;11.00;;;;;;;;;;5014878;28;20455;-68
2021/01/08 00:12:16;;;;;;;18.20;12.40;;;;;;;;;;5017110;28;20278;-69
2021/01/08 00:14:42;;;;;;;16.47;11.37;;;;;;;;;;5019599;28;20259;-69
2021/01/08 00:17:07;;;;;;;13.57;11.00;;;;;;;;;;5019361;28;20630;-69
2021/01/08 00:19:32;;;;;;;19.10;12.00;;;;;;;;;;5023969;28;20231;-69
2021/01/08 00:21:58;;;;;;;13.53;10.80;;;;;;;;;;5018163;28;20278;-69
2021/01/08 00:24:23;;;;;;;19.23;11.97;;;;;;;;;;5018736;28;20255;-69
2021/01/08 00:26:48;;;;;;;15.43;11.83;;;;;;;;;;5018969;28;20224;-69
2021/01/08 00:29:15;;;;;;;16.50;12.37;;;;;;;;;;5018677;28;20277;-70
2021/01/08 00:31:46;;;;;;;17.23;11.53;;;;;;;;;;5018425;28;20233;-70
2021/01/08 00:34:14;;;;;;;20.13;13.50;;;;;;;;;;5018915;28;20456;-70
2021/01/08 00:36:51;;;;;;;15.30;10.63;;;;;;;;;;5029932;28;20455;-69
2021/01/08 00:39:17;;;;;;;17.90;12.60;;;;;;;;;;5038802;28;20451;-69
2021/01/08 00:41:42;;;;;;;15.90;12.60;;;;;;;;;;5026527;28;20464;-69
2021/01/08 00:44:07;;;;;;;17.00;12.37;;;;;;;;;;5018714;28;20476;-68
2021/01/08 00:46:37;;;;;;;14.63;11.87;;;;;;;;;;5019099;28;20218;-69
2021/01/08 00:49:03;;;;;;;16.87;12.70;;;;;;;;;;5017823;28;20221;-71
2021/01/08 00:51:29;;;;;;;17.93;12.43;;;;;;;;;;5018400;28;20459;-70
2021/01/08 00:53:54;;;;;;;17.80;11.93;;;;;;;;;;5018003;28;20515;-71
2021/01/08 00:56:20;;;;;;;16.70;12.17;;;;;;;;;;5018895;28;20700;-70
2021/01/08 00:58:45;;;;;;;16.10;12.27;;;;;;;;;;5018754;28;20219;-69
2021/01/08 01:01:11;;;;;;;17.90;12.00;;;;;;;;;;5017525;28;20518;-69
2021/01/08 01:03:36;;;;;;;18.23;11.87;;;;;;;;;;5018269;28;20244;-71
2021/01/08 01:06:01;;;;;;;17.37;12.43;;;;;;;;;;5017740;28;20239;-70
2021/01/08 01:08:27;;;;;;;16.60;11.90;;;;;;;;;;5017987;28;20274;-71
2021/01/08 01:10:52;;;;;;;20.03;13.37;;;;;;;;;;5022546;28;20229;-70
2021/01/08 01:13:17;;;;;;;19.33;12.10;;;;;;;;;;5017936;28;20328;-72
2021/01/08 01:15:42;;;;;;;17.20;12.57;;;;;;;;;;5017620;28;20239;-69
2021/01/08 01:18:08;;;;;;;16.10;12.83;;;;;;;;;;5018557;28;20678;-69
2021/01/08 01:20:33;;;;;;;19.97;14.17;;;;;;;;;;5018605;28;20223;-69
2021/01/08 01:22:58;;;;;;;21.13;13.80;;;;;;;;;;5017913;28;20294;-69
2021/01/08 01:25:24;;;;;;;16.63;12.50;;;;;;;;;;5017061;28;20317;-69
2021/01/08 01:27:49;;;;;;;21.20;13.43;;;;;;;;;;5017437;28;20616;-69
2021/01/08 01:30:15;;;;;;;17.83;12.70;;;;;;;;;;5017171;28;20282;-68
2021/01/08 01:32:40;;;;;;;17.80;13.17;;;;;;;;;;5017540;28;20260;-69
2021/01/08 01:35:06;;;;;;;17.43;13.00;;;;;;;;;;5017849;28;20468;-69
2021/01/08 01:37:31;;;;;;;17.60;13.20;;;;;;;;;;5018326;28;20230;-69
2021/01/08 01:39:56;;;;;;;18.70;12.57;;;;;;;;;;5018021;28;20481;-68
2021/01/08 01:42:22;;;;;;;20.53;13.53;;;;;;;;;;5018040;28;20561;-69
2021/01/08 01:44:47;;;;;;;19.80;13.03;;;;;;;;;;5017662;28;20251;-69
2021/01/08 01:47:12;;;;;;;18.63;13.23;;;;;;;;;;5017396;28;20230;-68
2021/01/08 01:49:37;;;;;;;18.60;13.73;;;;;;;;;;5016544;28;20222;-68
2021/01/08 01:52:03;;;;;;;17.90;13.67;;;;;;;;;;5017038;28;20382;-67
2021/01/08 01:54:28;;;;;;;16.20;12.10;;;;;;;;;;5018004;28;20547;-68
2021/01/08 01:56:54;;;;;;;16.23;11.43;;;;;;;;;;5018140;28;20218;-68
2021/01/08 01:59:20;;;;;;;18.20;13.80;;;;;;;;;;5018289;28;20223;-68
2021/01/08 02:01:45;;;;;;;20.97;14.00;;;;;;;;;;5017496;28;20677;-68
2021/01/08 02:04:10;;;;;;;16.03;13.40;;;;;;;;;;5017852;28;20282;-68
2021/01/08 02:06:37;;;;;;;17.27;13.67;;;;;;;;;;5017721;28;20686;-68
2021/01/08 02:09:06;;;;;;;20.47;13.77;;;;;;;;;;5016296;28;20228;-68
2021/01/08 02:11:33;;;;;;;18.57;14.07;;;;;;;;;;5016787;28;20467;-68
2021/01/08 02:14:04;;;;;;;18.60;12.30;;;;;;;;;;5016500;28;20460;-68
2021/01/08 02:16:31;;;;;;;20.97;13.00;;;;;;;;;;5016535;28;20760;-68
2021/01/08 02:18:57;;;;;;;17.03;12.63;;;;;;;;;;5015843;28;20783;-65
2021/01/08 02:21:26;;;;;;;20.00;13.73;;;;;;;;;;5016159;28;20459;-68
2021/01/08 02:24:04;;;;;;;17.57;12.53;;;;;;;;;;5017105;28;20470;-69
2021/01/08 02:26:29;;;;;;;19.10;14.13;;;;;;;;;;5017486;28;21418;-68
2021/01/08 02:28:55;;;;;;;17.67;12.70;;;;;;;;;;5016525;28;20950;-68
2021/01/08 02:31:20;;;;;;;18.13;13.60;;;;;;;;;;5017046;28;20781;-68
2021/01/08 02:33:45;;;;;;;20.40;13.13;;;;;;;;;;5017561;28;20213;-68
2021/01/08 02:36:11;;;;;;;23.50;13.33;;;;;;;;;;5016685;28;20226;-68
2021/01/08 02:38:36;;;;;;;15.97;12.53;;;;;;;;;;5016307;28;20219;-68
2021/01/08 02:41:04;;;;;;;17.00;12.67;;;;;;;;;;5016163;28;20311;-68
2021/01/08 02:43:30;;;;;;;17.50;13.17;;;;;;;;;;5015205;28;20216;-68
2021/01/08 02:45:55;;;;;;;20.47;13.60;;;;;;;;;;5016743;28;20900;-69
2021/01/08 02:48:21;;;;;;;19.17;13.33;;;;;;;;;;5016222;28;20476;-68
2021/01/08 02:50:48;;;;;;;18.00;13.63;;;;;;;;;;5017131;28;20220;-68
2021/01/08 02:53:14;;;;;;;18.23;13.53;;;;;;;;;;5013506;28;20261;-67
2021/01/08 02:55:45;;;;;;;14.47;12.63;;;;;;;;;;5013137;28;20840;-69
2021/01/08 02:58:11;;;;;;;21.50;14.00;;;;;;;;;;5005401;28;20461;-67
2021/01/08 03:00:36;;;;;;;20.73;14.53;;;;;;;;;;4996978;28;20967;-67
2021/01/08 03:03:02;;;;;;;18.17;12.97;;;;;;;;;;5009131;28;20223;-69
2021/01/08 03:05:29;;;;;;;18.43;12.70;;;;;;;;;;5015916;28;20545;-69
2021/01/08 03:07:55;;;;;;;15.83;11.87;;;;;;;;;;5016309;28;20562;-69
2021/01/08 03:10:22;;;;;;;17.43;13.93;;;;;;;;;;5014838;28;20539;-68
2021/01/08 03:12:52;;;;;;;17.63;13.63;;;;;;;;;;5016143;28;20471;-69
2021/01/08 03:15:18;;;;;;;18.40;13.30;;;;;;;;;;5015982;28;20471;-68
2021/01/08 03:17:43;;;;;;;17.10;13.00;;;;;;;;;;5016886;28;20465;-69
2021/01/08 03:20:09;;;;;;;19.60;14.30;;;;;;;;;;5014916;28;20300;-68
2021/01/08 03:22:34;;;;;;;15.83;12.40;;;;;;;;;;5015255;28;20218;-70
2021/01/08 03:24:59;;;;;;;20.13;13.00;;;;;;;;;;5015237;28;20237;-68
2021/01/08 03:27:24;;;;;;;19.90;14.03;;;;;;;;;;5016096;28;20301;-68
2021/01/08 03:29:50;;;;;;;18.90;13.30;;;;;;;;;;5016503;28;20543;-68
2021/01/08 03:32:15;;;;;;;17.47;11.73;;;;;;;;;;5015645;28;20226;-67
2021/01/08 03:34:40;;;;;;;19.17;12.37;;;;;;;;;;5016707;28;20303;-69
2021/01/08 03:37:05;;;;;;;16.50;13.43;;;;;;;;;;5016685;28;20303;-69
2021/01/08 03:39:31;;;;;;;16.37;12.43;;;;;;;;;;5015548;28;20284;-69
2021/01/08 03:41:56;;;;;;;17.40;13.43;;;;;;;;;;5015880;28;20220;-68
2021/01/08 03:44:21;;;;;;;15.90;13.20;;;;;;;;;;5016358;28;20363;-69
2021/01/08 03:46:46;;;;;;;18.17;12.60;;;;;;;;;;5016592;28;20221;-69
2021/01/08 03:49:12;;;;;;;20.20;13.80;;;;;;;;;;5018777;28;20233;-68
2021/01/08 03:51:37;;;;;;;18.87;13.10;;;;;;;;;;5018931;28;20364;-69
2021/01/08 03:54:02;;;;;;;18.77;13.03;;;;;;;;;;5018972;28;20216;-69
2021/01/08 03:56:27;;;;;;;15.17;13.37;;;;;;;;;;5018697;28;20658;-69
2021/01/08 03:58:53;;;;;;;17.50;12.30;;;;;;;;;;5018854;28;20223;-69
2021/01/08 04:01:18;;;;;;;20.07;15.27;;;;;;;;;;5016549;28;20231;-68
2021/01/08 04:03:43;;;;;;;16.27;12.40;;;;;;;;;;4998858;28;20352;-68
2021/01/08 04:06:09;;;;;;;18.07;13.03;;;;;;;;;;4999005;28;20229;-69
2021/01/08 04:08:34;;;;;;;18.53;13.80;;;;;;;;;;4998412;28;20293;-68
2021/01/08 04:10:59;;;;;;;18.63;14.37;;;;;;;;;;4999027;28;20219;-69
2021/01/08 04:13:24;;;;;;;18.60;14.50;;;;;;;;;;4998204;28;20313;-68
2021/01/08 04:15:50;;;;;;;15.17;12.60;;;;;;;;;;4999226;28;20237;-69
2021/01/08 04:18:16;;;;;;;19.37;14.70;;;;;;;;;;4998111;28;20414;-68
2021/01/08 04:20:41;;;;;;;17.83;13.97;;;;;;;;;;4998313;28;20211;-68
2021/01/08 04:23:06;;;;;;;17.20;13.13;;;;;;;;;;4998931;28;20870;-68
2021/01/08 04:25:32;;;;;;;20.77;14.33;;;;;;;;;;4998271;28;20310;-68
2021/01/08 04:27:57;;;;;;;17.67;13.57;;;;;;;;;;4997765;28;20222;-68
2021/01/08 04:30:25;;;;;;;19.20;13.77;;;;;;;;;;4998615;28;20336;-68
2021/01/08 04:32:50;;;;;;;19.10;14.90;;;;;;;;;;4998823;28;20215;-68
2021/01/08 04:35:17;;;;;;;20.20;14.27;;;;;;;;;;4998440;28;20455;-68
2021/01/08 04:37:42;;;;;;;20.30;13.70;;;;;;;;;;4998748;28;20207;-70
2021/01/08 04:40:08;;;;;;;17.70;14.23;;;;;;;;;;4998405;28;20529;-69
2021/01/08 04:42:35;;;;;;;19.13;13.90;;;;;;;;;;4997766;28;20229;-68
2021/01/08 04:45:03;;;;;;;19.53;14.43;;;;;;;;;;4998359;28;20454;-69
2021/01/08 04:47:30;;;;;;;18.20;13.30;;;;;;;;;;4996795;28;20455;-68
2021/01/08 04:49:55;;;;;;;19.67;15.17;;;;;;;;;;5029805;28;20458;-68
2021/01/08 04:52:20;;;;;;;19.07;15.10;;;;;;;;;;4997582;28;20529;-68
2021/01/08 04:54:46;;;;;;;23.50;14.93;;;;;;;;;;4997026;28;20226;-69
2021/01/08 04:57:13;;;;;;;16.90;13.10;;;;;;;;;;4996918;28;20226;-69
2021/01/08 04:59:38;;;;;;;20.60;15.87;;;;;;;;;;4996393;28;20293;-69
2021/01/08 05:02:04;;;;;;;22.57;14.90;;;;;;;;;;5037745;28;20921;-69
2021/01/08 05:04:29;;;;;;;18.90;13.70;;;;;;;;;;5017323;28;20229;-69
2021/01/08 05:06:54;;;;;;;20.27;15.37;;;;;;;;;;5017356;28;20287;-70
2021/01/08 05:09:20;;;;;;;17.80;14.17;;;;;;;;;;5016774;28;20348;-68
2021/01/08 05:11:46;;;;;;;22.40;16.03;;;;;;;;;;5017597;28;20218;-69
2021/01/08 05:14:16;;;;;;;16.77;13.27;;;;;;;;;;5018134;28;20242;-69
2021/01/08 05:16:41;;;;;;;18.77;13.40;;;;;;;;;;5017557;28;20464;-68
2021/01/08 05:19:07;;;;;;;19.00;12.20;;;;;;;;;;5017676;28;20524;-69
2021/01/08 05:21:33;;;;;;;18.70;13.53;;;;;;;;;;5016786;28;20221;-68
2021/01/08 05:24:00;;;;;;;18.70;13.30;;;;;;;;;;5017021;28;20287;-68
2021/01/08 05:26:25;;;;;;;18.40;13.53;;;;;;;;;;5016976;28;20465;-68
2021/01/08 05:28:53;;;;;;;16.93;13.50;;;;;;;;;;5016287;28;20467;-69
2021/01/08 05:31:19;;;;;;;19.60;14.30;;;;;;;;;;5016711;28;20681;-68
2021/01/08 05:33:44;;;;;;;15.20;12.10;;;;;;;;;;5016294;28;20464;-69
2021/01/08 05:36:11;;;;;;;17.43;12.80;;;;;;;;;;5017083;28;20539;-70
2021/01/08 05:38:39;;;;;;;18.40;13.20;;;;;;;;;;5048490;28;20263;-69
2021/01/08 05:41:05;;;;;;;18.07;12.63;;;;;;;;;;5016807;28;20853;-69
2021/01/08 05:43:30;;;;;;;17.93;13.70;;;;;;;;;;5016979;28;20462;-68
2021/01/08 05:46:15;;;;;;;17.67;13.30;;;;;;;;;;5016035;28;20244;-69
2021/01/08 05:49:08;;;;;;;18.77;13.40;;;;;;;;;;5016531;28;20529;-69
2021/01/08 05:51:38;;;;;;;25.23;14.23;;;;;;;;;;5016485;28;20472;-69
2021/01/08 05:54:04;;;;;;;19.60;13.50;;;;;;;;;;5017709;28;20848;-70
2021/01/08 05:56:37;;;;;;;22.37;14.30;;;;;;;;;;5017246;28;20489;-70
2021/01/08 05:59:06;;;;;;;19.83;13.83;;;;;;;;;;5016999;28;20515;-69
2021/01/08 06:01:32;;;;;;;18.30;13.23;;;;;;;;;;5013554;28;20459;-69
2021/01/08 06:03:58;;;;;;;20.20;13.57;;;;;;;;;;4997056;28;20903;-69
2021/01/08 06:06:24;;;;;;;20.70;14.30;;;;;;;;;;4997386;28;20458;-68
2021/01/08 06:08:53;;;;;;;19.03;14.50;;;;;;;;;;4998347;28;20790;-68
2021/01/08 06:11:20;;;;;;;21.07;13.70;;;;;;;;;;4996524;28;20527;-69
2021/01/08 06:13:50;;;;;;;18.17;12.80;;;;;;;;;;4996797;28;20442;-68
2021/01/08 06:16:18;;;;;;;18.93;12.80;;;;;;;;;;4998017;28;20803;-68
2021/01/08 06:18:45;;;;;;;20.30;13.70;;;;;;;;;;4995491;28;20446;-69
2021/01/08 06:21:10;;;;;;;17.90;13.30;;;;;;;;;;4996780;28;20462;-69
2021/01/08 06:23:37;;;;;;;20.53;13.97;;;;;;;;;;4996218;28;20482;-69
2021/01/08 06:26:04;;;;;;;20.77;13.57;;;;;;;;;;4996720;28;20266;-69
2021/01/08 06:28:37;;;;;;;17.50;14.07;;;;;;;;;;5028564;28;20472;-68
2021/01/08 06:31:07;;;;;;;23.20;15.70;;;;;;;;;;4996843;28;20470;-69
2021/01/08 06:33:35;;;;;;;18.90;14.30;;;;;;;;;;4996470;28;20457;-69
2021/01/08 06:36:18;;;;;;;23.30;15.70;;;;;;;;;;4996693;28;20482;-70
2021/01/08 06:38:46;;;;;;;18.73;12.80;;;;;;;;;;4996987;28;20446;-69
2021/01/08 06:41:13;;;;;;;18.97;14.90;;;;;;;;;;4997492;28;20473;-69
2021/01/08 06:43:40;;;;;;;24.43;15.43;;;;;;;;;;4996799;28;20497;-69
2021/01/08 06:46:09;;;;;;;20.10;14.73;;;;;;;;;;4995944;28;20454;-69
2021/01/08 06:48:36;;;;;;;21.73;13.90;;;;;;;;;;4995712;28;20569;-69
2021/01/08 06:51:03;;;;;;;19.77;14.67;;;;;;;;;;4995869;28;20473;-69
2021/01/08 06:53:31;;;;;;;22.53;14.67;;;;;;;;;;4995607;28;20801;-69
2021/01/08 06:56:02;;;;;;;20.20;14.07;;;;;;;;;;4997249;28;20469;-69
2021/01/08 06:58:29;;;;;;;17.90;14.13;;;;;;;;;;4997129;28;20469;-69
2021/01/08 07:00:59;;;;;;;17.77;14.33;;;;;;;;;;4995565;28;20459;-69
2021/01/08 07:03:25;;;;;;;19.03;13.23;;;;;;;;;;5013285;28;20790;-69
2021/01/08 07:05:55;;;;;;;17.00;14.00;;;;;;;;;;5014360;28;20453;-71
2021/01/08 07:08:20;;;;;;;17.20;12.63;;;;;;;;;;5015153;28;20234;-70
2021/01/08 07:10:54;;;;;;;24.93;15.23;;;;;;;;;;5014851;28;20925;-70
2021/01/08 07:13:29;;;;;;;18.47;14.60;;;;;;;;;;5014845;28;20214;-69
2021/01/08 07:15:55;;;;;;;17.17;14.27;;;;;;;;;;5014667;28;20461;-69
2021/01/08 07:18:23;;;;;;;19.30;15.27;;;;;;;;;;5015318;28;20452;-69
2021/01/08 07:20:56;;;;;;;17.50;15.00;;;;;;;;;;5015367;28;20227;-69
2021/01/08 07:23:27;;;;;;;24.13;15.67;;;;;;;;;;5019270;28;20458;-70
2021/01/08 07:25:53;;;;;;;20.60;13.60;;;;;;;;;;5020075;28;20909;-69
2021/01/08 07:28:18;;;;;;;20.67;15.60;;;;;;;;;;5019933;28;20777;-70
2021/01/08 07:30:44;;;;;;;20.53;15.00;;;;;;;;;;5018903;28;20541;-68
2021/01/08 07:33:16;;;;;;;20.30;14.17;;;;;;;;;;5014836;28;20302;-71
2021/01/08 07:35:45;;;;;;;22.53;14.67;;;;;;;;;;5022680;28;20865;-68
2021/01/08 07:38:14;;;;;;;20.10;13.83;;;;;;;;;;5028685;28;20461;-69
2021/01/08 07:40:48;;;;;;;18.83;13.67;;;;;;;;;;5028004;28;20468;-69
2021/01/08 07:43:14;;;;;;;22.17;15.57;;;;;;;;;;5024892;28;20454;-69
2021/01/08 07:45:46;;;;;;;19.80;14.70;;;;;;;;;;5029629;28;20476;-71
2021/01/08 07:48:28;;;;;;;20.57;14.30;;;;;;;;;;5032479;28;20212;-71
2021/01/08 07:50:58;;;;;;;20.97;15.60;;;;;;;;;;5023286;28;20525;-71
2021/01/08 07:53:48;;;;;;;23.13;15.90;;;;;;;;;;5013432;28;20479;-70
2021/01/08 07:56:21;;;;;;;20.07;14.07;;;;;;;;;;5026101;28;20454;-71
2021/01/08 07:59:04;;;;;;;18.30;13.37;;;;;;;;;;5028528;28;20462;-72
2021/01/08 08:01:30;;;;;;;21.77;14.67;;;;;;;;;;5011455;28;20470;-69
2021/01/08 08:04:04;;;;;;;20.63;15.00;;;;;;;;;;5032417;28;20559;-71
2021/01/08 08:06:31;;;;;;;20.97;13.73;;;;;;;;;;5011567;28;20463;-70
2021/01/08 08:08:59;;;;;;;23.73;14.90;;;;;;;;;;5031968;28;20520;-70
2021/01/08 08:11:27;;;;;;;25.33;16.60;;;;;;;;;;5026873;28;20457;-69
2021/01/08 08:13:54;;;;;;;25.90;15.67;;;;;;;;;;5025649;28;20926;-70
2021/01/08 08:16:32;;;;;;;19.13;14.83;;;;;;;;;;5028742;28;20472;-68
2021/01/08 08:18:57;;;;;;;23.57;15.80;;;;;;;;;;5031131;28;20537;-71
2021/01/08 08:21:22;;;;;;;22.90;15.13;;;;;;;;;;5026705;28;20468;-69
2021/01/08 08:23:55;;;;;;;23.03;15.73;;;;;;;;;;5023500;28;20367;-70
2021/01/08 08:26:22;;;;;;;22.23;16.80;;;;;;;;;;5026266;28;20249;-69
2021/01/08 08:29:03;;;;;;;21.30;15.40;;;;;;;;;;5030824;28;20806;-69
2021/01/08 08:31:29;;;;;;;21.73;14.87;;;;;;;;;;5030593;28;20468;-68
2021/01/08 08:33:55;;;;;;;23.67;15.37;;;;;;;;;;5008203;28;20458;-70
2021/01/08 08:36:21;;;;;;;22.80;16.10;;;;;;;;;;5029106;28;20464;-68
2021/01/08 08:39:00;;;;;;;22.60;16.00;;;;;;;;;;5023728;28;20217;-71
2021/01/08 08:41:27;;;;;;;22.97;16.53;;;;;;;;;;5023631;28;21044;-70
2021/01/08 08:44:06;;;;;;;22.33;15.87;;;;;;;;;;5029622;28;20469;-70
2021/01/08 08:46:50;;;;;;;20.73;15.53;;;;;;;;;;5029568;28;20799;-70
2021/01/08 08:49:25;;;;;;;20.30;15.37;;;;;;;;;;5025594;28;20491;-69
2021/01/08 08:51:53;;;;;;;19.57;14.83;;;;;;;;;;5022053;28;20526;-70
2021/01/08 08:54:19;;;;;;;19.33;14.20;;;;;;;;;;5024498;28;20786;-70
2021/01/08 08:57:01;;;;;;;21.83;17.30;;;;;;;;;;5029817;28;20524;-71
2021/01/08 08:59:43;;;;;;;27.53;17.40;;;;;;;;;;5028990;28;20460;-70
2021/01/08 09:02:09;;;;;;;26.30;18.07;;;;;;;;;;5018153;28;20459;-70
2021/01/08 09:04:35;;;;;;;25.40;17.97;;;;;;;;;;5029125;28;20473;-69
2021/01/08 09:07:07;;;;;;;28.30;19.17;;;;;;;;;;5026126;28;20953;-71
2021/01/08 09:09:36;;;;;;;24.40;17.93;;;;;;;;;;5021552;28;20466;-71
2021/01/08 09:12:11;;;;;;;28.07;18.27;;;;;;;;;;5026474;28;20527;-70
2021/01/08 09:14:38;;;;;;;24.33;17.03;;;;;;;;;;5006704;28;641537;-71
2021/01/08 09:17:09;;;;;;;24.87;16.87;;;;;;;;;;5011381;28;20228;-69
2021/01/08 09:19:51;;;;;;;26.53;16.93;;;;;;;;;;5023037;28;20462;-71
2021/01/08 09:22:17;;;;;;;21.77;15.10;;;;;;;;;;5023565;28;20555;-69
2021/01/08 09:24:44;;;;;;;24.13;15.70;;;;;;;;;;5031152;28;20462;-69
2021/01/08 09:27:12;;;;;;;26.37;16.13;;;;;;;;;;5030543;28;20229;-69
2021/01/08 09:29:38;;;;;;;21.93;15.77;;;;;;;;;;5010030;28;20464;-70
2021/01/08 09:32:04;;;;;;;23.40;16.30;;;;;;;;;;5023698;28;20475;-69
2021/01/08 09:34:30;;;;;;;22.60;17.20;;;;;;;;;;5008720;28;20227;-70
2021/01/08 09:36:57;;;;;;;18.67;14.17;;;;;;;;;;5030801;28;20465;-70
2021/01/08 09:39:23;;;;;;;27.07;18.90;;;;;;;;;;5021379;28;20304;-69
2021/01/08 09:41:56;;;;;;;23.43;15.77;;;;;;;;;;5029909;28;20478;-70
2021/01/08 09:44:35;;;;;;;24.73;16.50;;;;;;;;;;5010404;28;20952;-69
2021/01/08 09:47:04;;;;;;;21.33;14.87;;;;;;;;;;5023319;28;20468;-70
2021/01/08 09:49:53;;;;;;;18.90;14.47;;;;;;;;;;5027304;28;20483;-69
2021/01/08 09:52:27;;;;;;;21.77;15.00;;;;;;;;;;5030622;28;20543;-70
2021/01/08 09:54:53;;;;;;;24.53;17.50;;;;;;;;;;5029687;28;20452;-69
2021/01/08 09:57:29;;;;;;;20.30;15.77;;;;;;;;;;5022803;28;20526;-69
2021/01/08 09:59:59;;;;;;;26.93;16.93;;;;;;;;;;5022938;28;20272;-68
2021/01/08 10:02:38;;;;;;;23.07;17.60;;;;;;;;;;5034518;28;20807;-69
2021/01/08 10:05:08;;;;;;;25.10;17.37;;;;;;;;;;5023894;28;20502;-69
2021/01/08 10:07:41;;;;;;;23.63;15.87;;;;;;;;;;5026666;28;20468;-70
2021/01/08 10:10:07;;;;;;;275.67;142.83;;;;;;;;;;5030377;28;20465;-69
2021/01/08 10:12:46;;;;;;;186.57;108.80;;;;;;;;;;5027896;28;20591;-70
2021/01/08 10:15:13;;;;;;;30.27;20.93;;;;;;;;;;5023510;28;20503;-71
2021/01/08 10:17:48;;;;;;;47.70;30.60;;;;;;;;;;5024689;28;20470;-70
2021/01/08 10:20:26;;;;;;;37.70;23.67;;;;;;;;;;5013370;28;20531;-70
2021/01/08 10:22:52;;;;;;;27.03;17.40;;;;;;;;;;5023673;28;20932;-71
2021/01/08 10:25:30;;;;;;;35.63;24.13;;;;;;;;;;5027581;28;20495;-70
2021/01/08 10:28:17;;;;;;;30.80;20.20;;;;;;;;;;5030081;28;20557;-69
2021/01/08 10:30:44;;;;;;;27.37;19.67;;;;;;;;;;5029759;28;20461;-70
2021/01/08 10:33:09;;;;;;;55.43;44.50;;;;;;;;;;5015524;28;20543;-69
2021/01/08 10:35:35;;;;;;;32.57;22.73;;;;;;;;;;5023523;28;20473;-71
2021/01/08 10:38:01;;;;;;;24.07;18.40;;;;;;;;;;5023977;28;20225;-69
2021/01/08 10:40:26;;;;;;;47.00;36.20;;;;;;;;;;5018564;28;20468;-70
2021/01/08 10:42:52;;;;;;;23.10;17.13;;;;;;;;;;5028882;28;20240;-68
2021/01/08 10:45:17;;;;;;;22.73;16.60;;;;;;;;;;5028826;28;20545;-71
2021/01/08 10:47:43;;;;;;;22.67;17.07;;;;;;;;;;5023602;28;20515;-70
2021/01/08 10:50:10;;;;;;;21.03;14.10;;;;;;;;;;5023045;28;20320;-70
2021/01/08 10:52:35;;;;;;;23.67;15.07;;;;;;;;;;5030515;28;20226;-71
2021/01/08 10:55:00;;;;;;;23.63;14.67;;;;;;;;;;5021679;28;20472;-70
2021/01/08 10:57:26;;;;;;;22.87;15.23;;;;;;;;;;5016786;28;20244;-70
2021/01/08 10:59:51;;;;;;;24.50;16.93;;;;;;;;;;5017699;28;20227;-67
2021/01/08 11:02:16;;;;;;;24.50;16.97;;;;;;;;;;5031691;28;20236;-70
2021/01/08 11:04:42;;;;;;;20.43;15.13;;;;;;;;;;5024271;28;20226;-71
2021/01/08 11:07:08;;;;;;;21.50;14.83;;;;;;;;;;5026906;28;20655;-70
2021/01/08 11:09:34;;;;;;;27.43;17.87;;;;;;;;;;5023771;28;20474;-71
2021/01/08 11:11:59;;;;;;;23.83;15.67;;;;;;;;;;5029647;28;20473;-69
2021/01/08 11:14:24;;;;;;;25.53;16.50;;;;;;;;;;5024685;28;20317;-70
2021/01/08 11:16:49;;;;;;;20.30;15.27;;;;;;;;;;5029673;28;20233;-71
2021/01/08 11:19:15;;;;;;;20.80;14.80;;;;;;;;;;5028284;28;20400;-70
2021/01/08 11:21:40;;;;;;;24.20;17.03;;;;;;;;;;5022601;28;20228;-70
2021/01/08 11:24:06;;;;;;;21.00;14.13;;;;;;;;;;5024424;28;20234;-72
2021/01/08 11:26:31;;;;;;;24.50;15.80;;;;;;;;;;5029323;28;20271;-70
2021/01/08 11:28:57;;;;;;;19.27;14.13;;;;;;;;;;5026037;28;20228;-69
2021/01/08 11:31:40;;;;;;;23.60;16.73;;;;;;;;;;5018625;28;20225;-70
2021/01/08 11:34:06;;;;;;;25.60;16.73;;;;;;;;;;5016836;28;20215;-70
2021/01/08 11:36:31;;;;;;;25.60;18.07;;;;;;;;;;5030498;28;20787;-71
2021/01/08 11:38:57;;;;;;;20.13;15.23;;;;;;;;;;5022685;28;20469;-69
2021/01/08 11:41:22;;;;;;;25.17;18.43;;;;;;;;;;5026296;28;20223;-70
2021/01/08 11:43:48;;;;;;;29.37;19.10;;;;;;;;;;5022316;28;20259;-71
2021/01/08 11:46:20;;;;;;;28.47;18.90;;;;;;;;;;5020519;28;20225;-72
2021/01/08 11:48:45;;;;;;;25.40;17.53;;;;;;;;;;5042064;28;20231;-70
2021/01/08 11:51:12;;;;;;;26.80;16.63;;;;;;;;;;5024207;28;20468;-69
2021/01/08 11:53:42;;;;;;;25.73;16.50;;;;;;;;;;5023319;28;20281;-70
2021/01/08 11:56:08;;;;;;;28.33;18.87;;;;;;;;;;5026691;28;20465;-69
2021/01/08 11:58:37;;;;;;;23.83;17.33;;;;;;;;;;5028931;28;20474;-70
2021/01/08 12:01:03;;;;;;;22.60;15.30;;;;;;;;;;5024428;28;20479;-69
2021/01/08 12:03:28;;;;;;;26.50;17.53;;;;;;;;;;5019322;28;20458;-69
2021/01/08 12:05:53;;;;;;;20.30;15.30;;;;;;;;;;5027046;28;20221;-70
2021/01/08 12:08:19;;;;;;;20.87;14.80;;;;;;;;;;5030204;28;20224;-71
2021/01/08 12:10:44;;;;;;;20.43;15.23;;;;;;;;;;5028588;28;20219;-70
2021/01/08 12:13:09;;;;;;;27.07;16.60;;;;;;;;;;5022986;28;20693;-70
2021/01/08 12:15:34;;;;;;;21.40;15.70;;;;;;;;;;5019022;28;20229;-69
2021/01/08 12:18:00;;;;;;;24.83;17.77;;;;;;;;;;5021527;28;20560;-69
2021/01/08 12:20:25;;;;;;;20.03;15.23;;;;;;;;;;5031452;28;20304;-72
2021/01/08 12:22:50;;;;;;;21.63;16.17;;;;;;;;;;5020559;28;20220;-71
2021/01/08 12:25:16;;;;;;;22.83;16.60;;;;;;;;;;5025222;28;20385;-70
2021/01/08 12:27:41;;;;;;;19.17;14.03;;;;;;;;;;5020480;28;20208;-70
2021/01/08 12:30:07;;;;;;;19.97;14.00;;;;;;;;;;5026980;28;20232;-69
2021/01/08 12:32:35;;;;;;;23.43;15.90;;;;;;;;;;5025378;28;20228;-70
2021/01/08 12:35:00;;;;;;;25.83;16.20;;;;;;;;;;5020564;28;20489;-70
2021/01/08 12:37:25;;;;;;;20.97;14.00;;;;;;;;;;5029059;28;20467;-71
2021/01/08 12:39:50;;;;;;;21.60;13.93;;;;;;;;;;5025290;28;20231;-71
2021/01/08 12:42:16;;;;;;;22.70;15.90;;;;;;;;;;5023040;28;20246;-71
2021/01/08 12:44:41;;;;;;;24.83;14.60;;;;;;;;;;5032647;28;20314;-70
2021/01/08 12:47:06;;;;;;;24.83;16.83;;;;;;;;;;5028090;28;20225;-69
2021/01/08 12:49:32;;;;;;;16.53;12.23;;;;;;;;;;5028121;28;20213;-71
2021/01/08 12:51:57;;;;;;;21.07;15.47;;;;;;;;;;5027180;28;20226;-72
2021/01/08 12:54:22;;;;;;;17.90;12.30;;;;;;;;;;5025776;28;20222;-71
2021/01/08 12:56:48;;;;;;;22.43;14.10;;;;;;;;;;5030056;28;20229;-71
2021/01/08 12:59:13;;;;;;;22.73;13.10;;;;;;;;;;5028827;28;20320;-72
2021/01/08 13:01:38;;;;;;;18.93;11.63;;;;;;;;;;5027954;28;20220;-70
2021/01/08 13:04:03;;;;;;;20.27;13.10;;;;;;;;;;5025182;28;20225;-70
2021/01/08 13:06:29;;;;;;;13.30;11.10;;;;;;;;;;5030955;28;20683;-72
2021/01/08 13:08:55;;;;;;;18.27;13.23;;;;;;;;;;5032584;28;20226;-71
2021/01/08 13:11:20;;;;;;;14.07;10.27;;;;;;;;;;5025313;28;20254;-71
2021/01/08 13:13:46;;;;;;;17.77;10.53;;;;;;;;;;5023710;28;20775;-71
2021/01/08 13:16:11;;;;;;;14.40;9.97;;;;;;;;;;5030220;28;20230;-70
2021/01/08 13:18:36;;;;;;;16.60;11.20;;;;;;;;;;5031380;28;20218;-71
2021/01/08 13:21:02;;;;;;;16.50;10.90;;;;;;;;;;5023265;28;20241;-69
2021/01/08 13:23:27;;;;;;;13.47;9.63;;;;;;;;;;5024526;28;20218;-71
2021/01/08 13:25:52;;;;;;;12.77;9.97;;;;;;;;;;5030743;28;20232;-71
2021/01/08 13:28:18;;;;;;;12.17;9.57;;;;;;;;;;5030007;28;20376;-71
2021/01/08 13:30:44;;;;;;;16.73;9.03;;;;;;;;;;5023405;28;20232;-71
2021/01/08 13:33:09;;;;;;;11.07;9.00;;;;;;;;;;5019286;28;20218;-72
2021/01/08 13:35:35;;;;;;;12.23;9.20;;;;;;;;;;5027506;28;20233;-71
2021/01/08 13:38:00;;;;;;;13.57;8.80;;;;;;;;;;5023727;28;20303;-71
2021/01/08 13:40:27;;;;;;;12.23;9.30;;;;;;;;;;5034913;28;20213;-72
2021/01/08 13:42:52;;;;;;;12.87;9.47;;;;;;;;;;5023837;28;20238;-71
2021/01/08 13:45:17;;;;;;;12.80;9.33;;;;;;;;;;5028569;28;20849;-60
2021/01/08 13:47:42;;;;;;;12.67;9.63;;;;;;;;;;5032959;28;20226;-60
2021/01/08 13:50:08;;;;;;;12.73;8.53;;;;;;;;;;5018090;28;20317;-61
2021/01/08 13:52:39;;;;;;;13.40;9.10;;;;;;;;;;5019758;28;20222;-60
2021/01/08 13:55:08;;;;;;;11.57;9.90;;;;;;;;;;5014649;28;20222;-63
2021/01/08 13:57:34;;;;;;;12.77;9.07;;;;;;;;;;5023647;28;20464;-61
2021/01/08 13:59:59;;;;;;;12.80;9.40;;;;;;;;;;5026765;28;20458;-61
2021/01/08 14:02:25;;;;;;;9.87;7.83;;;;;;;;;;5021237;28;20228;-60
2021/01/08 14:04:50;;;;;;;10.83;8.30;;;;;;;;;;5026421;28;20231;-60
2021/01/08 14:07:15;;;;;;;11.07;8.20;;;;;;;;;;5031685;28;20746;-60
2021/01/08 14:09:41;;;;;;;10.40;7.80;;;;;;;;;;5028837;28;20218;-60
2021/01/08 14:12:08;;;;;;;15.80;9.10;;;;;;;;;;5024891;28;20228;-60
2021/01/08 14:14:33;;;;;;;15.70;11.10;;;;;;;;;;5021608;28;20559;-60
2021/01/08 14:16:58;;;;;;;15.60;10.20;;;;;;;;;;5017564;28;20472;-59
2021/01/08 14:19:24;;;;;;;14.57;9.53;;;;;;;;;;5049111;28;20255;-60